KDNS/DNS METAR and TAF weather

Enter ICAO airport designator
Station Type Date Time Source
KDNS METAR 2019/04/26 04:35 UTC NOAA

KDNS 260435Z AUTO 30006KT 10SM CLR 11/02 A3005 RMK AO2


Station Type Date Time Source
KDNS Decoded METAR 2019/04/26 04:35 UTC NOAA

Denison, IA, United States (KDNS) 41-59N 095-23W
Apr 26, 2019 - 12:35 AM EDT / 2019.04.26 0435 UTC
Wind: from the WNW (300 degrees) at 7 MPH (6 KT):0
Visibility: 10 mile(s):0
Sky conditions: clear
Temperature: 51 F (11 C)
Dew Point: 35 F (2 C)
Relative Humidity: 53%
Pressure (altimeter): 30.05 in. Hg (1017 hPa)
ob: KDNS 260435Z AUTO 30006KT 10SM CLR 11/02 A3005 RMK AO2
cycle: 4

Station Type Date Time Source
KDNS TAF UTC NOAA

Error!

Example: see airport list